createdAt,value
2023-01-21T00:01:10.542Z,24.47
2023-01-21T00:03:37.735Z,23.60
2023-01-21T00:06:05.289Z,23.50
2023-01-21T00:08:32.202Z,21.40
2023-01-21T00:11:06.761Z,22.23
2023-01-21T00:13:34.728Z,21.83
2023-01-21T00:16:02.268Z,22.27
2023-01-21T00:18:30.160Z,21.53
2023-01-21T00:20:57.623Z,20.93
2023-01-21T00:23:25.204Z,21.93
2023-01-21T00:26:03.664Z,21.33
2023-01-21T00:28:33.331Z,19.00
2023-01-21T00:31:02.816Z,20.33
2023-01-21T00:33:30.352Z,20.07
2023-01-21T00:36:03.813Z,19.03
2023-01-21T00:38:31.796Z,19.07
2023-01-21T00:41:04.214Z,19.60
2023-01-21T00:43:31.471Z,18.97
2023-01-21T00:45:58.434Z,17.20
2023-01-21T00:48:25.068Z,18.90
2023-01-21T00:50:52.141Z,19.20
2023-01-21T00:53:19.248Z,19.13
2023-01-21T00:55:45.914Z,18.17
2023-01-21T00:58:12.641Z,18.60
2023-01-21T01:00:39.345Z,17.00
2023-01-21T01:03:06.118Z,18.57
2023-01-21T01:05:33.466Z,18.30
2023-01-21T01:08:00.167Z,18.40
2023-01-21T01:10:26.738Z,17.43
2023-01-21T01:12:54.025Z,18.90
2023-01-21T01:15:21.287Z,19.23
2023-01-21T01:17:47.956Z,18.60
2023-01-21T01:20:14.900Z,18.17
2023-01-21T01:22:41.681Z,17.67
2023-01-21T01:25:08.564Z,18.77
2023-01-21T01:27:35.168Z,17.20
2023-01-21T01:30:01.799Z,16.80
2023-01-21T01:32:28.499Z,18.23
2023-01-21T01:34:55.286Z,17.40
2023-01-21T01:37:22.055Z,16.93
2023-01-21T01:39:48.584Z,17.33
2023-01-21T01:42:16.091Z,16.57
2023-01-21T01:44:58.006Z,17.03
2023-01-21T01:47:59.861Z,17.33
2023-01-21T01:50:32.704Z,17.23
2023-01-21T01:53:01.266Z,18.37
2023-01-21T01:55:35.644Z,17.93
2023-01-21T01:58:06.490Z,17.10
2023-01-21T02:00:34.107Z,17.67
2023-01-21T02:03:20.269Z,18.47
2023-01-21T02:05:47.695Z,18.50
2023-01-21T02:08:14.891Z,17.83
2023-01-21T02:10:41.671Z,17.70
2023-01-21T02:13:09.712Z,17.87
2023-01-21T02:15:50.375Z,17.37
2023-01-21T02:18:43.789Z,16.30
2023-01-21T02:21:56.376Z,17.10
2023-01-21T02:25:02.253Z,17.10
2023-01-21T02:28:12.072Z,16.93
2023-01-21T02:30:56.032Z,16.73
2023-01-21T02:33:42.177Z,17.07
2023-01-21T02:36:50.962Z,17.70
2023-01-21T02:39:25.806Z,16.87
2023-01-21T02:42:13.569Z,17.90
2023-01-21T02:44:42.832Z,18.17
2023-01-21T02:47:18.434Z,17.93
2023-01-21T02:49:52.405Z,18.80
2023-01-21T02:52:20.992Z,16.87
2023-01-21T02:54:51.261Z,18.00
2023-01-21T02:57:29.540Z,17.87
2023-01-21T02:59:58.978Z,18.73
2023-01-21T03:02:46.881Z,17.57
2023-01-21T03:05:22.966Z,17.27
2023-01-21T03:07:55.936Z,17.93
2023-01-21T03:10:31.897Z,17.73
2023-01-21T03:13:07.845Z,16.87
2023-01-21T03:16:09.748Z,16.77
2023-01-21T03:18:49.471Z,17.83
2023-01-21T03:21:21.569Z,18.77
2023-01-21T03:23:51.380Z,18.07
2023-01-21T03:26:24.453Z,18.73
2023-01-21T03:28:55.071Z,17.47
2023-01-21T03:31:27.024Z,18.50
2023-01-21T03:33:57.252Z,18.00
2023-01-21T03:36:36.130Z,18.93
2023-01-21T03:39:26.401Z,17.17
2023-01-21T03:41:54.436Z,18.20
2023-01-21T03:44:21.942Z,17.83
2023-01-21T03:47:11.061Z,18.60
2023-01-21T03:49:46.546Z,18.00
2023-01-21T03:52:14.369Z,18.07
2023-01-21T03:54:41.543Z,16.50
2023-01-21T03:57:08.230Z,18.17
2023-01-21T03:59:35.786Z,18.50
2023-01-21T04:02:02.483Z,19.27
2023-01-21T04:04:29.084Z,18.87
2023-01-21T04:06:55.638Z,20.03
2023-01-21T04:09:22.997Z,21.47
2023-01-21T04:11:49.585Z,21.93
2023-01-21T04:14:16.128Z,21.40
2023-01-21T04:16:42.921Z,21.53
2023-01-21T04:19:10.647Z,23.27
2023-01-21T04:21:37.793Z,21.40
2023-01-21T04:24:04.698Z,22.27
2023-01-21T04:26:31.522Z,21.87
2023-01-21T04:28:58.349Z,20.10
2023-01-21T04:31:25.266Z,24.30
2023-01-21T04:33:51.936Z,22.87
2023-01-21T04:36:18.766Z,24.40
2023-01-21T04:38:45.631Z,25.00
2023-01-21T04:41:12.226Z,24.43
2023-01-21T04:43:39.685Z,24.37
2023-01-21T04:46:07.069Z,27.37
2023-01-21T04:48:34.059Z,27.53
2023-01-21T04:51:00.803Z,25.73
2023-01-21T04:53:27.514Z,26.13
2023-01-21T04:55:54.906Z,25.80
2023-01-21T04:58:21.689Z,25.67
2023-01-21T05:00:48.738Z,25.93
2023-01-21T05:03:16.198Z,25.97
2023-01-21T05:05:42.809Z,25.47
2023-01-21T05:08:10.138Z,26.23
2023-01-21T05:10:36.873Z,26.17
2023-01-21T05:13:05.043Z,26.47
2023-01-21T05:15:31.964Z,26.27
2023-01-21T05:17:58.561Z,27.37
2023-01-21T05:20:25.249Z,25.97
2023-01-21T05:22:52.675Z,27.10
2023-01-21T05:25:19.777Z,26.40
2023-01-21T05:27:52.389Z,24.50
2023-01-21T05:30:19.415Z,26.33
2023-01-21T05:32:50.474Z,25.87
2023-01-21T05:35:19.234Z,25.27
2023-01-21T05:37:47.740Z,27.17
2023-01-21T05:40:16.514Z,25.70
2023-01-21T05:42:44.437Z,25.03
2023-01-21T05:45:12.250Z,26.73
2023-01-21T05:47:38.960Z,26.50
2023-01-21T05:50:06.653Z,26.43
2023-01-21T05:52:33.222Z,24.63
2023-01-21T05:55:02.565Z,25.70
2023-01-21T05:57:30.398Z,24.47
2023-01-21T05:59:57.202Z,24.80
2023-01-21T06:02:25.375Z,26.53
2023-01-21T06:04:52.739Z,25.77
2023-01-21T06:07:19.421Z,24.40
2023-01-21T06:09:46.168Z,24.23
2023-01-21T06:12:13.010Z,23.03
2023-01-21T06:14:41.026Z,24.53
2023-01-21T06:17:07.711Z,24.40
2023-01-21T06:19:34.524Z,24.43
2023-01-21T06:22:01.809Z,23.87
2023-01-21T06:24:29.097Z,24.27
2023-01-21T06:26:56.807Z,24.00
2023-01-21T06:29:24.464Z,23.93
2023-01-21T06:31:51.447Z,24.03
2023-01-21T06:34:18.277Z,23.47
2023-01-21T06:36:44.861Z,24.43
2023-01-21T06:39:12.323Z,22.43
2023-01-21T06:41:39.114Z,22.47
2023-01-21T06:44:06.213Z,23.80
2023-01-21T06:46:32.890Z,22.93
2023-01-21T06:48:59.792Z,22.80
2023-01-21T06:51:31.868Z,23.53
2023-01-21T06:53:58.764Z,21.70
2023-01-21T06:56:25.391Z,23.57
2023-01-21T06:58:51.949Z,22.93
2023-01-21T07:01:19.382Z,22.47
2023-01-21T07:03:46.056Z,22.53
2023-01-21T07:06:15.516Z,20.83
2023-01-21T07:08:42.140Z,22.40
2023-01-21T07:11:08.826Z,22.10
2023-01-21T07:13:36.159Z,20.03
2023-01-21T07:16:04.083Z,19.93
2023-01-21T07:18:32.839Z,19.80
2023-01-21T07:20:59.842Z,20.73
2023-01-21T07:23:26.684Z,20.80
2023-01-21T07:25:53.259Z,19.77
2023-01-21T07:28:20.098Z,20.50
2023-01-21T07:30:47.076Z,21.30
2023-01-21T07:33:15.113Z,20.37
2023-01-21T07:35:42.845Z,19.80
2023-01-21T07:38:10.328Z,20.93
2023-01-21T07:40:37.040Z,20.27
2023-01-21T07:43:04.110Z,20.80
2023-01-21T07:45:30.902Z,21.00
2023-01-21T07:47:57.730Z,19.63
2023-01-21T07:50:24.355Z,22.60
2023-01-21T07:52:54.859Z,23.47
2023-01-21T07:55:22.338Z,22.23
2023-01-21T07:57:48.914Z,22.47
2023-01-21T08:00:16.661Z,22.03
2023-01-21T08:02:43.595Z,23.27
2023-01-21T08:05:11.019Z,22.57
2023-01-21T08:07:37.640Z,23.70
2023-01-21T08:10:05.318Z,23.30
2023-01-21T08:12:33.255Z,23.17
2023-01-21T08:14:59.847Z,23.37
2023-01-21T08:17:27.400Z,22.60
2023-01-21T08:19:55.921Z,23.40
2023-01-21T08:22:23.904Z,22.57
2023-01-21T08:24:51.256Z,23.27
2023-01-21T08:27:18.466Z,22.60
2023-01-21T08:29:45.266Z,23.37
2023-01-21T08:32:12.083Z,24.57
2023-01-21T08:34:38.743Z,23.40
2023-01-21T08:37:05.482Z,23.43
2023-01-21T08:39:32.711Z,22.20
2023-01-21T08:41:59.399Z,24.97
2023-01-21T08:44:26.246Z,23.47
2023-01-21T08:46:52.986Z,23.23
2023-01-21T08:49:20.447Z,23.23
2023-01-21T08:51:48.039Z,21.67
2023-01-21T08:54:15.083Z,20.80
2023-01-21T08:56:41.816Z,23.60
2023-01-21T08:59:08.808Z,22.40
2023-01-21T09:01:41.571Z,20.93
2023-01-21T09:04:19.563Z,19.60
2023-01-21T09:06:46.181Z,23.37
2023-01-21T09:09:12.838Z,21.80
2023-01-21T09:11:39.397Z,20.83
2023-01-21T09:14:06.710Z,21.07
2023-01-21T09:16:33.448Z,21.13
2023-01-21T09:19:01.195Z,20.17
2023-01-21T09:21:30.977Z,20.13
2023-01-21T09:23:58.949Z,19.23
2023-01-21T09:26:26.628Z,20.13
2023-01-21T09:28:58.380Z,19.40
2023-01-21T09:31:28.495Z,18.33
2023-01-21T09:34:03.672Z,19.20
2023-01-21T09:36:32.589Z,16.90
2023-01-21T09:39:00.445Z,18.03
2023-01-21T09:41:39.349Z,18.40
2023-01-21T09:44:10.234Z,16.53
2023-01-21T09:46:52.053Z,18.90
2023-01-21T09:49:25.902Z,18.70
2023-01-21T09:52:03.051Z,18.27
2023-01-21T09:54:32.786Z,17.43
2023-01-21T09:57:23.940Z,16.90
2023-01-21T10:00:08.083Z,18.03
2023-01-21T10:02:56.393Z,17.90
2023-01-21T10:05:33.949Z,17.33
2023-01-21T10:08:17.952Z,15.97
2023-01-21T10:11:05.298Z,17.07
2023-01-21T10:14:03.909Z,15.83
2023-01-21T10:16:55.699Z,17.57
2023-01-21T10:19:48.428Z,14.50
2023-01-21T10:22:25.032Z,17.43
2023-01-21T10:25:03.069Z,16.33
2023-01-21T10:27:35.876Z,16.67
2023-01-21T10:30:19.343Z,16.13
2023-01-21T10:32:50.929Z,14.85
2023-01-21T10:35:19.689Z,14.23
2023-01-21T10:37:57.915Z,15.33
2023-01-21T10:40:45.644Z,14.90
2023-01-21T10:43:28.176Z,15.10
2023-01-21T10:46:16.072Z,14.05
2023-01-21T10:48:52.341Z,14.50
2023-01-21T10:51:27.585Z,13.93
2023-01-21T10:54:11.601Z,13.60
2023-01-21T10:56:51.989Z,14.17
2023-01-21T10:59:27.598Z,14.20
2023-01-21T11:02:02.779Z,13.63
2023-01-21T11:04:29.890Z,14.00
2023-01-21T11:07:02.791Z,14.07
2023-01-21T11:09:34.185Z,13.93
2023-01-21T11:12:01.052Z,15.03
2023-01-21T11:14:28.471Z,15.77
2023-01-21T11:16:57.001Z,14.43
2023-01-21T11:19:30.478Z,14.23
2023-01-21T11:21:59.549Z,15.33
2023-01-21T11:24:28.075Z,13.93
2023-01-21T11:27:00.756Z,16.90
2023-01-21T11:29:40.027Z,15.90
2023-01-21T11:32:18.247Z,15.10
2023-01-21T11:34:47.616Z,13.43
2023-01-21T11:37:28.047Z,15.07
2023-01-21T11:40:05.408Z,15.40
2023-01-21T11:42:32.623Z,16.17
2023-01-21T11:45:06.452Z,15.17
2023-01-21T11:47:49.642Z,15.53
2023-01-21T11:50:28.474Z,15.17
2023-01-21T11:53:11.582Z,15.13
2023-01-21T11:56:00.007Z,13.97
2023-01-21T11:58:33.933Z,14.17
2023-01-21T12:01:04.178Z,12.83
2023-01-21T12:03:36.908Z,13.37
2023-01-21T12:06:05.006Z,13.67
2023-01-21T12:08:35.130Z,12.50
2023-01-21T12:11:04.462Z,13.63
2023-01-21T12:13:49.326Z,11.50
2023-01-21T12:16:32.232Z,11.15
2023-01-21T12:19:18.249Z,11.23
2023-01-21T12:21:49.922Z,11.50
2023-01-21T12:24:31.397Z,11.67
2023-01-21T12:27:27.244Z,10.85
2023-01-21T12:30:19.451Z,11.52
2023-01-21T12:32:51.619Z,11.65
2023-01-21T12:35:30.149Z,11.47
2023-01-21T12:38:06.639Z,11.70
2023-01-21T12:41:00.071Z,11.73
2023-01-21T12:43:35.114Z,11.40
2023-01-21T12:46:14.032Z,10.83
2023-01-21T12:49:18.455Z,10.37
2023-01-21T12:51:51.260Z,10.70
2023-01-21T12:54:37.800Z,10.07
2023-01-21T12:57:16.722Z,11.40
2023-01-21T12:59:56.479Z,10.40
2023-01-21T13:02:32.168Z,11.03
2023-01-21T13:05:09.101Z,10.70
2023-01-21T13:07:53.824Z,11.50
2023-01-21T13:10:24.197Z,11.50
2023-01-21T13:12:58.738Z,10.37
2023-01-21T13:15:33.447Z,11.40
2023-01-21T13:18:04.489Z,11.63
2023-01-21T13:20:36.194Z,11.48
2023-01-21T13:23:26.864Z,11.30
2023-01-21T13:26:04.092Z,11.77
2023-01-21T13:28:44.759Z,11.90
2023-01-21T13:31:14.523Z,11.50
2023-01-21T13:34:06.152Z,11.50
2023-01-21T13:36:50.344Z,10.87
2023-01-21T13:39:26.954Z,11.03
2023-01-21T13:42:21.552Z,11.93
2023-01-21T13:45:16.307Z,10.80
2023-01-21T13:47:53.880Z,10.23
2023-01-21T13:50:24.110Z,10.80
2023-01-21T13:53:07.534Z,11.40
2023-01-21T13:56:07.395Z,12.40
2023-01-21T13:59:04.250Z,11.47
2023-01-21T14:01:52.109Z,10.87
2023-01-21T14:04:27.830Z,11.27
2023-01-21T14:07:06.572Z,10.57
2023-01-21T14:09:40.758Z,10.80
2023-01-21T14:12:30.110Z,11.15
2023-01-21T14:15:16.892Z,10.55
2023-01-21T14:17:46.881Z,11.05
2023-01-21T14:20:19.944Z,10.75
2023-01-21T14:23:18.913Z,17.08
2023-01-21T14:26:06.593Z,14.45
2023-01-21T14:29:05.290Z,12.43
2023-01-21T14:31:43.804Z,11.63
2023-01-21T14:34:16.297Z,11.45
2023-01-21T14:37:01.609Z,11.17
2023-01-21T14:39:40.875Z,11.40
2023-01-21T14:42:13.307Z,12.63
2023-01-21T14:44:48.690Z,10.57
2023-01-21T14:47:30.429Z,9.43
2023-01-21T14:49:59.310Z,9.27
2023-01-21T14:52:30.381Z,9.60
2023-01-21T14:54:57.233Z,9.32
2023-01-21T14:57:35.556Z,8.93
2023-01-21T15:00:11.858Z,9.23
2023-01-21T15:02:42.798Z,9.50
2023-01-21T15:05:33.211Z,9.52
2023-01-21T15:08:08.937Z,9.73
2023-01-21T15:10:38.858Z,9.90
2023-01-21T15:13:23.059Z,10.20
2023-01-21T15:16:19.071Z,10.07
2023-01-21T15:19:07.908Z,10.02
2023-01-21T15:21:40.725Z,10.57
2023-01-21T15:24:24.553Z,11.13
2023-01-21T15:27:23.123Z,12.30
2023-01-21T15:30:00.494Z,10.97
2023-01-21T15:32:49.425Z,11.27
2023-01-21T15:35:35.419Z,11.87
2023-01-21T15:38:14.171Z,13.00
2023-01-21T15:40:50.989Z,13.27
2023-01-21T15:43:20.532Z,13.30
2023-01-21T15:46:03.594Z,12.80
2023-01-21T15:48:48.182Z,12.47
2023-01-21T15:51:20.816Z,14.60
2023-01-21T15:54:06.679Z,14.27
2023-01-21T15:56:33.207Z,15.10
2023-01-21T15:59:11.845Z,15.23
2023-01-21T16:01:43.051Z,15.40
2023-01-21T16:04:40.570Z,15.77
2023-01-21T16:07:25.678Z,15.47
2023-01-21T16:10:02.142Z,15.70
2023-01-21T16:12:34.702Z,17.27
2023-01-21T16:15:17.716Z,16.43
2023-01-21T16:17:59.313Z,16.03
2023-01-21T16:20:26.226Z,17.20
2023-01-21T16:22:57.777Z,17.93
2023-01-21T16:25:25.752Z,18.40
2023-01-21T16:27:54.294Z,18.53
2023-01-21T16:30:25.611Z,18.83
2023-01-21T16:33:09.018Z,18.80
2023-01-21T16:35:57.229Z,19.17
2023-01-21T16:38:29.547Z,19.27
2023-01-21T16:41:08.479Z,19.70
2023-01-21T16:43:37.557Z,19.80
2023-01-21T16:46:11.065Z,20.77
2023-01-21T16:48:37.775Z,18.97
2023-01-21T16:51:04.941Z,19.20
2023-01-21T16:53:31.576Z,21.97
2023-01-21T16:55:59.391Z,21.93
2023-01-21T16:58:34.258Z,23.50
2023-01-21T17:01:11.308Z,24.33
2023-01-21T17:03:39.286Z,22.37
2023-01-21T17:06:30.733Z,23.07
2023-01-21T17:09:05.064Z,24.97
2023-01-21T17:11:33.622Z,23.97
2023-01-21T17:14:09.507Z,24.57
2023-01-21T17:16:39.437Z,25.23
2023-01-21T17:19:09.223Z,26.30
2023-01-21T17:21:43.257Z,26.93
2023-01-21T17:24:30.370Z,26.47
2023-01-21T17:27:08.778Z,24.73
2023-01-21T17:29:35.740Z,26.33
2023-01-21T17:32:06.023Z,24.87
2023-01-21T17:34:38.547Z,32.42
2023-01-21T17:37:42.844Z,27.50
2023-01-21T17:40:30.212Z,28.40
2023-01-21T17:42:58.917Z,28.30
2023-01-21T17:45:42.432Z,28.73
2023-01-21T17:48:31.052Z,28.47
2023-01-21T17:51:12.343Z,28.90
2023-01-21T17:53:46.314Z,30.63
2023-01-21T17:56:13.365Z,31.63
2023-01-21T17:58:52.768Z,31.07
2023-01-21T18:01:21.190Z,30.77
2023-01-21T18:03:47.994Z,34.90
2023-01-21T18:06:22.367Z,34.77
2023-01-21T18:08:50.794Z,36.50
2023-01-21T18:11:17.955Z,32.57
2023-01-21T18:13:44.774Z,31.03
2023-01-21T18:16:11.405Z,37.13
2023-01-21T18:18:39.286Z,33.13
2023-01-21T18:21:06.313Z,30.70
2023-01-21T18:23:33.182Z,32.60
2023-01-21T18:25:59.936Z,30.37
2023-01-21T18:28:30.448Z,30.07
2023-01-21T18:30:58.012Z,28.03
2023-01-21T18:33:24.878Z,25.53
2023-01-21T18:35:52.775Z,28.10
2023-01-21T18:38:27.073Z,28.97
2023-01-21T18:40:57.550Z,25.07
2023-01-21T18:43:26.290Z,26.57
2023-01-21T18:45:54.408Z,24.00
2023-01-21T18:48:27.637Z,25.50
2023-01-21T18:50:54.710Z,22.23
2023-01-21T18:53:21.538Z,22.07
2023-01-21T18:55:50.837Z,23.10
2023-01-21T18:58:17.672Z,20.83
2023-01-21T19:00:44.502Z,22.73
2023-01-21T19:03:15.378Z,22.03
2023-01-21T19:05:44.551Z,20.67
2023-01-21T19:08:17.581Z,20.27
2023-01-21T19:10:44.476Z,19.13
2023-01-21T19:13:22.389Z,18.43
2023-01-21T19:15:49.457Z,18.43
2023-01-21T19:18:18.069Z,18.37
2023-01-21T19:20:44.932Z,17.20
2023-01-21T19:23:17.977Z,18.27
2023-01-21T19:25:54.250Z,18.70
2023-01-21T19:28:22.214Z,18.30
2023-01-21T19:30:50.553Z,19.00
2023-01-21T19:33:17.488Z,18.50
2023-01-21T19:35:45.600Z,17.80
2023-01-21T19:38:18.746Z,16.83
2023-01-21T19:40:48.487Z,17.07
2023-01-21T19:43:17.162Z,16.27
2023-01-21T19:45:44.923Z,16.37
2023-01-21T19:48:17.433Z,16.47
2023-01-21T19:50:44.515Z,15.57
2023-01-21T19:53:15.317Z,15.50
2023-01-21T19:55:43.976Z,15.23
2023-01-21T19:58:19.955Z,14.90
2023-01-21T20:01:00.975Z,14.73
2023-01-21T20:03:30.487Z,14.90
2023-01-21T20:06:01.598Z,14.03
2023-01-21T20:08:40.945Z,13.93
2023-01-21T20:11:15.716Z,13.13
2023-01-21T20:13:42.555Z,13.40
2023-01-21T20:16:16.922Z,12.33
2023-01-21T20:18:46.251Z,12.50
2023-01-21T20:21:12.989Z,11.63
2023-01-21T20:23:39.937Z,12.50
2023-01-21T20:26:11.017Z,11.60
2023-01-21T20:28:46.721Z,11.53
2023-01-21T20:31:13.563Z,11.73
2023-01-21T20:33:41.531Z,12.17
2023-01-21T20:36:21.086Z,11.53
2023-01-21T20:38:47.890Z,10.77
2023-01-21T20:41:14.617Z,10.63
2023-01-21T20:43:57.433Z,10.83
2023-01-21T20:46:28.117Z,10.23
2023-01-21T20:48:56.012Z,11.07
2023-01-21T20:51:23.102Z,11.50
2023-01-21T20:53:52.118Z,11.27
2023-01-21T20:56:23.880Z,12.00
2023-01-21T20:58:50.679Z,11.33
2023-01-21T21:01:20.433Z,12.60
2023-01-21T21:03:47.868Z,11.67
2023-01-21T21:06:23.021Z,11.47
2023-01-21T21:08:53.917Z,11.63
2023-01-21T21:11:21.361Z,10.90
2023-01-21T21:13:52.741Z,10.77
2023-01-21T21:16:27.656Z,11.47
2023-01-21T21:18:56.587Z,11.60
2023-01-21T21:21:24.181Z,11.57
2023-01-21T21:23:52.330Z,10.87
2023-01-21T21:26:29.085Z,11.70
2023-01-21T21:29:00.340Z,12.27
2023-01-21T21:31:34.003Z,12.40
2023-01-21T21:34:00.703Z,11.40
2023-01-21T21:36:27.433Z,12.40
2023-01-21T21:41:54.562Z,11.57
2023-01-21T21:44:22.789Z,12.27
2023-01-21T21:49:48.623Z,13.07
2023-01-21T21:52:20.704Z,11.67
2023-01-21T21:54:47.384Z,11.83
2023-01-21T21:57:14.171Z,11.53
2023-01-21T21:59:42.451Z,12.27
2023-01-21T22:02:29.215Z,12.50
2023-01-21T22:04:55.948Z,11.67
2023-01-21T22:07:22.618Z,12.03
2023-01-21T22:09:49.439Z,12.37
2023-01-21T22:12:16.264Z,11.77
2023-01-21T22:14:43.423Z,11.40
2023-01-21T22:17:10.582Z,11.10
2023-01-21T22:19:37.883Z,11.63
2023-01-21T22:22:04.710Z,12.43
2023-01-21T22:24:31.359Z,11.30
2023-01-21T22:26:58.262Z,11.43
2023-01-21T22:29:24.992Z,11.87
2023-01-21T22:31:51.932Z,11.97
2023-01-21T22:34:18.654Z,11.47
2023-01-21T22:36:47.771Z,12.03
2023-01-21T22:39:14.536Z,12.13
2023-01-21T22:41:41.299Z,11.87
2023-01-21T22:44:07.968Z,12.60
2023-01-21T22:46:34.778Z,11.77
2023-01-21T22:49:01.436Z,12.27
2023-01-21T22:51:28.670Z,11.57
2023-01-21T22:53:56.171Z,11.80
2023-01-21T22:56:35.631Z,11.80
2023-01-21T22:59:11.197Z,11.00
2023-01-21T23:01:38.117Z,10.40
2023-01-21T23:04:04.847Z,11.30
2023-01-21T23:06:31.575Z,10.33
2023-01-21T23:08:59.544Z,9.50
2023-01-21T23:11:26.301Z,9.47
2023-01-21T23:13:54.452Z,9.67
2023-01-21T23:16:21.861Z,9.23
2023-01-21T23:18:49.165Z,8.73
2023-01-21T23:21:21.492Z,8.80
2023-01-21T23:23:48.919Z,8.60
2023-01-21T23:26:18.846Z,7.97
2023-01-21T23:28:45.574Z,8.70
2023-01-21T23:31:17.437Z,8.43
2023-01-21T23:33:48.223Z,8.07
2023-01-21T23:36:15.439Z,8.07
2023-01-21T23:38:42.341Z,7.33
2023-01-21T23:41:11.812Z,7.73
2023-01-21T23:43:39.163Z,7.57
2023-01-21T23:46:08.091Z,7.40
2023-01-21T23:48:34.933Z,7.47
2023-01-21T23:51:06.012Z,7.37
2023-01-21T23:53:33.415Z,8.13
2023-01-21T23:56:24.275Z,8.00
2023-01-21T23:58:51.239Z,6.83
